Time;durP1;ratioP1;P1;durP2;ratioP2;P2;SDS_P1;SDS_P2;PMS_P1;PMS_P2;Temp;Humidity;BMP_temperature;BMP_pressure;BME280_temperature;BME280_humidity;BME280_pressure;Samples;Min_cycle;Max_cycle;Signal;HPM_P1;HPM_P2
2021/05/07 00:00:59;;;;;;;12.85;5.65;;;9.10;70.10;;;;;;5093747;28;20441;-76
2021/05/07 00:03:25;;;;;;;8.70;4.10;;;9.10;73.00;;;;;;5093492;28;20028;-76
2021/05/07 00:05:55;;;;;;;12.13;5.25;;;9.10;75.50;;;;;;5093652;28;20029;-76
2021/05/07 00:08:42;;;;;;;15.55;6.50;;;9.00;76.00;;;;;;5092204;28;20090;-76
2021/05/07 00:11:17;;;;;;;11.48;5.82;;;8.90;77.90;;;;;;5093395;28;20031;-76
2021/05/07 00:13:45;;;;;;;12.90;5.60;;;8.90;80.90;;;;;;5092201;28;20478;-76
2021/05/07 00:16:10;;;;;;;16.20;6.38;;;8.90;83.60;;;;;;5093359;28;20552;-76
2021/05/07 00:18:38;;;;;;;13.27;5.90;;;8.90;85.50;;;;;;5093261;28;20112;-76
2021/05/07 00:21:04;;;;;;;14.13;6.85;;;8.90;90.30;;;;;;5092084;28;20035;-76
2021/05/07 00:23:30;;;;;;;16.15;7.15;;;8.80;92.70;;;;;;5091486;28;20097;-76
2021/05/07 00:25:56;;;;;;;14.63;6.97;;;8.70;95.90;;;;;;5093283;28;20478;-76
2021/05/07 00:28:22;;;;;;;15.23;7.30;;;8.70;98.00;;;;;;5093118;28;20044;-76
2021/05/07 00:30:48;;;;;;;9.50;4.75;;;8.60;99.90;;;;;;5093172;28;20077;-76
2021/05/07 00:33:14;;;;;;;8.98;4.90;;;8.60;99.90;;;;;;5093076;28;20027;-76
2021/05/07 00:35:40;;;;;;;9.38;5.35;;;8.60;99.90;;;;;;5093240;28;20024;-76
2021/05/07 00:38:06;;;;;;;9.02;5.50;;;8.50;99.90;;;;;;5092986;28;20016;-77
2021/05/07 00:40:32;;;;;;;13.48;6.07;;;8.50;99.90;;;;;;5093181;28;20027;-76
2021/05/07 00:42:58;;;;;;;7.38;5.00;;;8.50;99.90;;;;;;5093038;28;20028;-76
2021/05/07 00:45:24;;;;;;;9.75;5.85;;;8.40;99.90;;;;;;5093033;28;20024;-76
2021/05/07 00:47:59;;;;;;;9.98;6.32;;;8.40;99.90;;;;;;5092840;28;20039;-76
2021/05/07 00:50:35;;;;;;;9.23;5.03;;;8.40;99.90;;;;;;5093020;28;20039;-76
2021/05/07 00:53:02;;;;;;;8.07;5.00;;;8.40;99.90;;;;;;5092944;28;20023;-76
2021/05/07 00:55:29;;;;;;;9.00;5.03;;;8.30;99.90;;;;;;5092929;28;20381;-76
2021/05/07 00:57:55;;;;;;;8.52;4.93;;;8.20;99.90;;;;;;5092485;28;20039;-76
2021/05/07 01:00:23;;;;;;;7.38;3.55;;;8.10;99.90;;;;;;5092848;28;20025;-76
2021/05/07 01:02:49;;;;;;;7.22;4.10;;;8.10;99.90;;;;;;5092727;28;20020;-76
2021/05/07 01:05:15;;;;;;;7.07;3.97;;;8.00;99.90;;;;;;5092841;28;20020;-76
2021/05/07 01:07:41;;;;;;;7.32;3.85;;;8.00;99.90;;;;;;5091326;28;20024;-76
2021/05/07 01:10:12;;;;;;;7.38;4.65;;;7.90;99.90;;;;;;5092738;28;20111;-76
2021/05/07 01:12:39;;;;;;;7.18;3.40;;;7.90;99.90;;;;;;5091246;28;20523;-76
2021/05/07 01:15:10;;;;;;;4.63;3.10;;;7.80;99.90;;;;;;5091433;28;20077;-76
2021/05/07 01:17:42;;;;;;;3.70;3.38;;;7.80;99.90;;;;;;5092754;28;20031;-75
2021/05/07 01:20:16;;;;;;;7.57;3.75;;;7.70;99.90;;;;;;5092736;28;20021;-76
2021/05/07 01:22:44;;;;;;;6.00;3.25;;;7.70;99.90;;;;;;5092658;28;20439;-75
2021/05/07 01:25:12;;;;;;;3.80;2.50;;;7.70;99.90;;;;;;5091412;28;20020;-75
2021/05/07 01:27:40;;;;;;;4.55;2.40;;;7.70;99.90;;;;;;5092516;28;20035;-75
2021/05/07 01:30:13;;;;;;;3.40;2.85;;;7.60;99.90;;;;;;5092680;28;20101;-75
2021/05/07 01:32:39;;;;;;;4.85;2.70;;;7.60;99.90;;;;;;5092572;28;20024;-76
2021/05/07 01:35:15;;;;;;;4.05;2.65;;;7.60;99.90;;;;;;5094338;28;20420;-76
2021/05/07 01:37:43;;;;;;;3.83;2.45;;;7.60;99.90;;;;;;5096433;28;20025;-76
2021/05/07 01:40:13;;;;;;;3.88;2.55;;;7.50;99.90;;;;;;5096406;28;20048;-76
2021/05/07 01:42:39;;;;;;;3.13;2.83;;;7.50;99.90;;;;;;5096247;28;20096;-76
2021/05/07 01:45:08;;;;;;;4.22;2.95;;;7.50;99.90;;;;;;5096321;28;20442;-76
2021/05/07 01:47:35;;;;;;;7.13;4.03;;;7.40;99.90;;;;;;5094570;28;20028;-76
2021/05/07 01:50:01;;;;;;;5.68;3.55;;;7.40;99.90;;;;;;5096303;28;20022;-76
2021/05/07 01:52:26;;;;;;;6.47;3.83;;;7.40;99.90;;;;;;5096090;28;20390;-76
2021/05/07 01:54:52;;;;;;;6.40;3.80;;;7.40;99.90;;;;;;5096081;28;20024;-76
2021/05/07 01:57:18;;;;;;;6.40;3.83;;;7.40;99.90;;;;;;5096057;28;20020;-76
2021/05/07 01:59:43;;;;;;;3.92;3.47;;;7.40;99.90;;;;;;5094648;28;20032;-76
2021/05/07 02:02:09;;;;;;;4.35;3.95;;;7.40;99.90;;;;;;5095888;28;20026;-76
2021/05/07 02:04:35;;;;;;;8.85;3.40;;;7.30;99.90;;;;;;5096028;28;20494;-76
2021/05/07 02:07:00;;;;;;;8.23;4.30;;;7.40;99.90;;;;;;5095716;28;20478;-76
2021/05/07 02:09:26;;;;;;;6.22;3.50;;;7.40;99.90;;;;;;5095928;28;20032;-76
2021/05/07 02:11:51;;;;;;;7.85;4.22;;;7.40;99.90;;;;;;5095680;28;20052;-76
2021/05/07 02:14:17;;;;;;;5.05;4.03;;;7.40;99.90;;;;;;5095790;28;20047;-76
2021/05/07 02:16:43;;;;;;;6.05;4.00;;;7.40;99.90;;;;;;5095703;28;20468;-76
2021/05/07 02:19:09;;;;;;;5.45;4.05;;;7.40;99.90;;;;;;5095566;28;20016;-75
2021/05/07 02:21:35;;;;;;;6.25;4.03;;;7.40;99.90;;;;;;5094282;28;20020;-76
2021/05/07 02:24:01;;;;;;;4.78;4.03;;;7.40;99.90;;;;;;5094178;28;20024;-76
2021/05/07 02:26:26;;;;;;;5.88;3.42;;;7.40;99.90;;;;;;5095570;28;20081;-76
2021/05/07 02:28:52;;;;;;;5.78;3.72;;;7.40;99.90;;;;;;5095300;28;20097;-76
2021/05/07 02:31:18;;;;;;;5.10;2.90;;;7.40;99.90;;;;;;5094165;28;20084;-75
2021/05/07 02:33:43;;;;;;;4.45;4.05;;;7.40;99.90;;;;;;5094034;28;20535;-76
2021/05/07 02:36:09;;;;;;;5.70;3.30;;;7.40;99.90;;;;;;5094055;28;20020;-77
2021/05/07 02:38:37;;;;;;;3.63;3.03;;;7.40;99.90;;;;;;5095252;28;20055;-76
2021/05/07 02:41:03;;;;;;;3.55;3.17;;;7.40;99.90;;;;;;5093898;28;20019;-77
2021/05/07 02:43:30;;;;;;;4.88;3.78;;;7.30;99.90;;;;;;5095147;28;20021;-76
2021/05/07 02:45:56;;;;;;;5.18;3.63;;;7.40;99.90;;;;;;5094821;28;20016;-76
2021/05/07 02:48:22;;;;;;;5.97;3.38;;;7.40;99.90;;;;;;5094944;28;20047;-76
2021/05/07 02:50:47;;;;;;;8.38;3.97;;;7.40;99.90;;;;;;5095084;28;20017;-76
2021/05/07 02:53:13;;;;;;;5.57;3.63;;;7.40;99.90;;;;;;5093654;28;20016;-76
2021/05/07 02:55:39;;;;;;;4.65;3.20;;;7.40;99.90;;;;;;5094953;28;20054;-76
2021/05/07 02:58:05;;;;;;;6.07;3.45;;;7.40;99.90;;;;;;5094697;28;20104;-76
2021/05/07 03:00:30;;;;;;;6.65;3.38;;;7.40;99.90;;;;;;5094732;28;20019;-76
2021/05/07 03:02:56;;;;;;;4.47;3.67;;;7.40;99.90;;;;;;5094708;28;20031;-76
2021/05/07 03:05:22;;;;;;;4.55;3.72;;;7.40;99.90;;;;;;5080851;28;20091;-76
2021/05/07 03:07:48;;;;;;;5.38;3.60;;;7.50;99.90;;;;;;5074355;28;20102;-76
2021/05/07 03:10:14;;;;;;;6.03;4.15;;;7.40;99.90;;;;;;5074506;28;20427;-75
2021/05/07 03:12:39;;;;;;;4.10;3.45;;;7.40;99.90;;;;;;5073043;28;20024;-76
2021/05/07 03:15:06;;;;;;;4.13;3.20;;;7.30;99.90;;;;;;5074299;28;20013;-76
2021/05/07 03:17:32;;;;;;;6.20;3.40;;;7.30;99.90;;;;;;5074299;28;20016;-75
2021/05/07 03:19:57;;;;;;;3.83;3.42;;;7.30;99.90;;;;;;5074249;28;20025;-75
2021/05/07 03:22:23;;;;;;;3.72;3.28;;;7.30;99.90;;;;;;5072742;28;20112;-76
2021/05/07 03:24:49;;;;;;;6.63;4.85;;;7.30;99.90;;;;;;5070885;28;20102;-76
2021/05/07 03:27:15;;;;;;;6.38;3.42;;;7.30;99.90;;;;;;5069417;28;20394;-75
2021/05/07 03:29:40;;;;;;;6.32;3.33;;;7.30;99.90;;;;;;5071499;28;20025;-75
2021/05/07 03:32:06;;;;;;;6.03;3.90;;;7.30;99.90;;;;;;5071275;28;20020;-75
2021/05/07 03:34:32;;;;;;;6.72;3.30;;;7.20;99.90;;;;;;5071790;28;20143;-76
2021/05/07 03:36:58;;;;;;;5.95;3.15;;;7.30;99.90;;;;;;5071787;28;20433;-76
2021/05/07 03:39:23;;;;;;;5.38;3.55;;;7.30;99.90;;;;;;5072541;28;20059;-75
2021/05/07 03:41:49;;;;;;;3.47;3.28;;;7.20;99.90;;;;;;5073815;28;20024;-76
2021/05/07 03:44:15;;;;;;;6.18;3.70;;;7.20;99.90;;;;;;5071201;28;20012;-77
2021/05/07 03:46:40;;;;;;;4.60;3.03;;;7.20;99.90;;;;;;5073536;28;20024;-75
2021/05/07 03:49:06;;;;;;;4.45;3.38;;;7.30;99.90;;;;;;5073418;28;20036;-76
2021/05/07 03:51:31;;;;;;;4.53;3.10;;;7.30;99.90;;;;;;5072321;28;20052;-76
2021/05/07 03:53:57;;;;;;;4.70;3.00;;;7.40;99.90;;;;;;5073503;28;20504;-76
2021/05/07 03:56:23;;;;;;;4.80;3.17;;;7.40;99.90;;;;;;5073411;28;20023;-76
2021/05/07 03:58:48;;;;;;;4.13;3.05;;;7.40;99.90;;;;;;5072761;28;20047;-76
2021/05/07 04:01:14;;;;;;;4.53;4.07;;;7.30;99.90;;;;;;5073298;28;20059;-76
2021/05/07 04:03:40;;;;;;;5.15;3.22;;;7.30;99.90;;;;;;5073363;28;20028;-75
2021/05/07 04:06:07;;;;;;;7.93;3.15;;;7.40;99.90;;;;;;5073341;28;20063;-76
2021/05/07 04:08:37;;;;;;;4.18;3.10;;;7.50;99.90;;;;;;5072014;28;20068;-75
2021/05/07 04:13:49;;;;;;;4.00;3.60;;;7.50;99.90;;;;;;5073212;28;20039;-75
2021/05/07 04:16:14;;;;;;;5.05;3.60;;;7.50;99.90;;;;;;5072840;28;20058;-76
2021/05/07 04:18:40;;;;;;;4.72;3.50;;;7.70;99.90;;;;;;5071781;28;20032;-75
2021/05/07 04:21:06;;;;;;;4.50;3.30;;;7.70;99.90;;;;;;5073079;28;20470;-76
2021/05/07 04:23:31;;;;;;;3.97;3.45;;;7.60;99.90;;;;;;5073046;28;20036;-75
2021/05/07 04:25:57;;;;;;;7.00;3.88;;;7.60;99.90;;;;;;5071816;28;20017;-75
2021/05/07 04:28:23;;;;;;;5.93;3.92;;;7.70;99.90;;;;;;5054945;28;20045;-76
2021/05/07 04:30:49;;;;;;;4.72;3.88;;;7.70;99.90;;;;;;5053053;28;20502;-76
2021/05/07 04:33:15;;;;;;;6.03;4.80;;;7.80;99.90;;;;;;5051603;28;20298;-76
2021/05/07 04:35:41;;;;;;;5.32;3.53;;;7.80;99.90;;;;;;5052935;28;20478;-76
2021/05/07 04:38:07;;;;;;;19.08;7.60;;;7.90;99.90;;;;;;5051516;28;20433;-75
2021/05/07 04:40:33;;;;;;;55.50;17.98;;;7.90;99.90;;;;;;5052804;28;20478;-76
2021/05/07 04:43:01;;;;;;;76.32;22.60;;;7.90;99.90;;;;;;5051517;28;20032;-76
2021/05/07 04:45:31;;;;;;;38.13;15.20;;;7.80;99.90;;;;;;5069850;28;20047;-76
2021/05/07 04:47:57;;;;;;;21.65;8.65;;;7.90;99.90;;;;;;5066237;28;20041;-76
2021/05/07 04:50:23;;;;;;;10.05;6.95;;;7.90;99.90;;;;;;5068959;28;20048;-76
2021/05/07 04:52:49;;;;;;;27.83;10.10;;;7.90;99.90;;;;;;5070616;28;20029;-77
2021/05/07 04:55:15;;;;;;;144.77;50.63;;;7.90;99.90;;;;;;5071909;28;20074;-75
2021/05/07 04:57:41;;;;;;;43.53;15.32;;;7.90;99.90;;;;;;5069085;28;20025;-75
2021/05/07 05:00:08;;;;;;;107.22;39.95;;;7.90;99.90;;;;;;5071214;28;20481;-75
2021/05/07 05:02:34;;;;;;;13.63;7.13;;;7.90;99.90;;;;;;5072623;28;20424;-76
2021/05/07 05:05:01;;;;;;;8.13;4.82;;;8.10;99.90;;;;;;5070700;28;20016;-76
2021/05/07 05:07:27;;;;;;;7.00;4.35;;;8.10;99.90;;;;;;5057888;28;20065;-76
2021/05/07 05:09:52;;;;;;;7.00;5.35;;;8.20;99.90;;;;;;5055661;28;20053;-76
2021/05/07 05:12:18;;;;;;;8.15;4.40;;;8.30;99.90;;;;;;5071688;28;20020;-76
2021/05/07 05:14:44;;;;;;;7.45;5.35;;;8.40;99.90;;;;;;5075129;28;20013;-76
2021/05/07 05:17:10;;;;;;;6.50;4.15;;;8.40;99.90;;;;;;5076294;28;20576;-76
2021/05/07 05:19:35;;;;;;;7.40;4.70;;;8.50;99.90;;;;;;5075249;28;20017;-76
2021/05/07 05:22:01;;;;;;;8.77;4.75;;;8.50;99.90;;;;;;5074776;28;20021;-76
2021/05/07 05:24:27;;;;;;;6.15;4.40;;;8.60;99.90;;;;;;5075092;28;20367;-76
2021/05/07 05:26:53;;;;;;;9.18;5.18;;;8.60;99.90;;;;;;5074379;28;20477;-76
2021/05/07 05:29:18;;;;;;;6.25;5.00;;;8.70;99.90;;;;;;5076165;28;20031;-76
2021/05/07 05:31:44;;;;;;;6.45;4.53;;;8.90;99.90;;;;;;5075238;28;20017;-77
2021/05/07 05:34:09;;;;;;;6.40;5.25;;;8.90;99.90;;;;;;5073188;28;20066;-77
2021/05/07 05:36:35;;;;;;;7.88;5.60;;;9.00;99.90;;;;;;5053896;28;20398;-76
2021/05/07 05:39:01;;;;;;;9.35;5.75;;;9.10;99.90;;;;;;5053081;28;20056;-76
2021/05/07 05:41:27;;;;;;;14.00;6.68;;;9.30;99.90;;;;;;5054311;28;20421;-76
2021/05/07 05:43:52;;;;;;;10.85;7.07;;;9.40;99.90;;;;;;5053327;28;20079;-76
2021/05/07 05:46:18;;;;;;;9.75;6.30;;;9.50;99.90;;;;;;5054494;28;20020;-76
2021/05/07 05:48:44;;;;;;;9.95;6.20;;;9.60;99.90;;;;;;5054769;28;20510;-76
2021/05/07 05:51:10;;;;;;;11.00;6.10;;;9.70;99.90;;;;;;5056711;28;20028;-75
2021/05/07 05:53:35;;;;;;;9.65;5.88;;;9.70;99.90;;;;;;5064810;28;20059;-76
2021/05/07 05:56:01;;;;;;;11.60;7.22;;;9.80;99.90;;;;;;5063317;28;20012;-76
2021/05/07 05:58:30;;;;;;;8.88;6.78;;;10.00;99.90;;;;;;5066138;28;20032;-76
2021/05/07 06:00:56;;;;;;;9.70;6.40;;;10.00;99.90;;;;;;5064007;28;20050;-76
2021/05/07 06:03:22;;;;;;;9.50;5.78;;;10.20;99.90;;;;;;5064348;28;20122;-76
2021/05/07 06:05:48;;;;;;;12.57;6.78;;;10.30;99.90;;;;;;5066251;28;20086;-76
2021/05/07 06:08:13;;;;;;;11.18;6.75;;;10.30;99.90;;;;;;5063337;28;20433;-76
2021/05/07 06:10:39;;;;;;;13.85;6.90;;;10.50;99.90;;;;;;5064774;28;20020;-76
2021/05/07 06:13:05;;;;;;;8.52;6.25;;;10.50;99.90;;;;;;5064783;28;20120;-76
2021/05/07 06:15:30;;;;;;;8.90;6.25;;;10.60;99.90;;;;;;5064208;28;20021;-76
2021/05/07 06:17:56;;;;;;;8.15;5.75;;;10.90;99.90;;;;;;5064926;28;20033;-76
2021/05/07 06:20:22;;;;;;;7.97;5.32;;;10.80;98.60;;;;;;5063514;28;20033;-76
2021/05/07 06:22:48;;;;;;;12.68;7.10;;;10.90;95.60;;;;;;5063697;28;20021;-76
2021/05/07 06:25:17;;;;;;;7.72;6.13;;;10.80;99.90;;;;;;5065072;28;20493;-76
2021/05/07 06:27:43;;;;;;;9.82;4.75;;;10.70;98.70;;;;;;5060469;28;20036;-70
2021/05/07 06:30:11;;;;;;;11.63;5.78;;;10.80;99.30;;;;;;5055220;28;20017;-72
2021/05/07 06:32:37;;;;;;;10.70;5.78;;;10.80;99.90;;;;;;5060486;28;20036;-70
2021/05/07 06:35:04;;;;;;;8.27;4.60;;;11.00;97.60;;;;;;5064119;28;20016;-71
2021/05/07 06:37:29;;;;;;;9.38;5.57;;;11.00;96.50;;;;;;5065424;28;20040;-71
2021/05/07 06:39:55;;;;;;;6.97;5.15;;;10.90;91.50;;;;;;5053719;28;20049;-73
2021/05/07 06:42:21;;;;;;;7.40;5.47;;;10.80;92.40;;;;;;5054941;28;20033;-71
2021/05/07 06:44:46;;;;;;;6.88;5.22;;;10.80;96.00;;;;;;5061485;28;20505;-71
2021/05/07 06:47:13;;;;;;;10.40;5.80;;;10.80;97.20;;;;;;5065182;28;20032;-70
2021/05/07 06:49:38;;;;;;;7.00;4.50;;;10.80;99.70;;;;;;5066970;28;20020;-72
2021/05/07 06:52:04;;;;;;;8.20;4.88;;;10.80;99.90;;;;;;5074766;28;20024;-70
2021/05/07 06:54:30;;;;;;;10.48;4.97;;;10.70;95.70;;;;;;5074812;28;20103;-71
2021/05/07 06:56:57;;;;;;;7.20;4.70;;;10.70;99.10;;;;;;5072646;28;20040;-71
2021/05/07 06:59:27;;;;;;;8.75;4.93;;;10.70;99.70;;;;;;5071270;28;20543;-70
2021/05/07 07:01:53;;;;;;;7.20;4.38;;;10.60;99.90;;;;;;5073332;28;20446;-71
2021/05/07 07:04:19;;;;;;;8.70;4.78;;;10.50;99.90;;;;;;5074532;28;20524;-71
2021/05/07 07:06:44;;;;;;;7.88;4.80;;;10.40;99.90;;;;;;5074549;28;20028;-72
2021/05/07 07:09:11;;;;;;;6.97;4.25;;;10.30;99.90;;;;;;5074366;28;20032;-73
2021/05/07 07:11:38;;;;;;;5.25;3.70;;;10.20;99.90;;;;;;5074416;28;20078;-71
2021/05/07 07:14:04;;;;;;;8.35;5.05;;;10.20;99.90;;;;;;5074263;28;20539;-71
2021/05/07 07:16:30;;;;;;;7.20;5.13;;;10.10;99.90;;;;;;5074339;28;20008;-72
2021/05/07 07:18:56;;;;;;;7.75;4.35;;;10.30;99.90;;;;;;5072909;28;20055;-72
2021/05/07 07:21:21;;;;;;;6.78;4.03;;;10.30;99.90;;;;;;5070981;28;20071;-73
2021/05/07 07:23:47;;;;;;;8.57;4.60;;;10.40;99.90;;;;;;5074116;28;20467;-72
2021/05/07 07:26:13;;;;;;;3.95;3.30;;;10.40;99.90;;;;;;5074154;28;20390;-72
2021/05/07 07:28:38;;;;;;;5.93;3.92;;;10.30;99.90;;;;;;5073970;28;20478;-71
2021/05/07 07:31:05;;;;;;;4.32;3.80;;;10.30;99.90;;;;;;5072724;28;20070;-73
2021/05/07 07:33:31;;;;;;;4.15;3.35;;;10.30;99.90;;;;;;5056791;28;20043;-71
2021/05/07 07:35:57;;;;;;;8.82;4.13;;;10.30;99.90;;;;;;5052738;28;20021;-73
2021/05/07 07:38:24;;;;;;;9.00;4.63;;;10.20;99.90;;;;;;5052621;28;20025;-71
2021/05/07 07:40:50;;;;;;;5.50;3.35;;;10.20;99.90;;;;;;5061857;28;20118;-72
2021/05/07 07:43:18;;;;;;;5.07;3.70;;;10.10;99.90;;;;;;5073090;28;20029;-71
2021/05/07 07:45:44;;;;;;;6.35;3.28;;;10.00;99.90;;;;;;5062970;28;20029;-71
2021/05/07 07:48:11;;;;;;;5.00;3.58;;;9.90;99.90;;;;;;5051651;28;20043;-71
2021/05/07 07:50:37;;;;;;;12.07;4.88;;;9.90;99.90;;;;;;5051906;28;20025;-71
2021/05/07 07:53:03;;;;;;;5.40;3.70;;;9.90;99.90;;;;;;5051861;28;20094;-71
2021/05/07 07:55:28;;;;;;;5.47;3.28;;;9.90;99.90;;;;;;5053589;28;20056;-73
2021/05/07 07:57:54;;;;;;;8.13;4.28;;;10.10;99.90;;;;;;5051806;28;20033;-72
2021/05/07 08:00:20;;;;;;;5.97;4.35;;;10.20;99.90;;;;;;5072806;28;20020;-71
2021/05/07 08:02:46;;;;;;;5.15;3.60;;;10.40;99.90;;;;;;5068654;28;20016;-72
2021/05/07 08:05:12;;;;;;;4.88;3.67;;;10.60;99.90;;;;;;5069341;28;20013;-72
2021/05/07 08:07:38;;;;;;;4.63;3.33;;;10.70;99.90;;;;;;5068430;28;20103;-72
2021/05/07 08:10:05;;;;;;;3.88;3.08;;;10.80;98.30;;;;;;5063963;28;20044;-72
2021/05/07 08:12:30;;;;;;;5.43;2.90;;;10.80;93.40;;;;;;5071702;28;20093;-71
2021/05/07 08:14:57;;;;;;;5.07;3.67;;;10.70;92.30;;;;;;5071416;28;20102;-73
2021/05/07 08:17:24;;;;;;;3.53;2.30;;;10.70;91.50;;;;;;5072761;28;20036;-72
2021/05/07 08:19:50;;;;;;;3.72;3.08;;;10.70;90.30;;;;;;5073283;28;20025;-72
2021/05/07 08:22:17;;;;;;;7.32;3.75;;;10.60;93.30;;;;;;5073146;28;20035;-72
2021/05/07 08:24:46;;;;;;;6.60;3.00;;;10.70;96.00;;;;;;5071906;28;20016;-71
2021/05/07 08:27:12;;;;;;;5.03;2.88;;;10.60;95.60;;;;;;5071733;28;20032;-71
2021/05/07 08:29:38;;;;;;;3.85;2.50;;;10.60;93.80;;;;;;5071848;28;20070;-71
2021/05/07 08:32:04;;;;;;;5.00;2.92;;;10.50;91.70;;;;;;5071633;28;20028;-72
2021/05/07 08:34:30;;;;;;;9.63;5.43;;;10.50;90.00;;;;;;5073008;28;20025;-72
2021/05/07 08:36:55;;;;;;;3.60;3.25;;;10.50;88.60;;;;;;5071609;28;20112;-71
2021/05/07 08:39:21;;;;;;;4.55;3.53;;;10.40;90.30;;;;;;5071641;28;20044;-73
2021/05/07 08:41:50;;;;;;;9.18;6.47;;;10.40;89.30;;;;;;5072994;28;20056;-71
2021/05/07 08:44:18;;;;;;;26.85;17.10;;;10.40;92.40;;;;;;5072539;28;20017;-72
2021/05/07 08:46:45;;;;;;;20.83;8.02;;;10.40;91.10;;;;;;5073050;28;20486;-72
2021/05/07 08:49:14;;;;;;;8.85;5.20;;;10.50;89.80;;;;;;5072706;28;20078;-72
2021/05/07 08:51:40;;;;;;;6.13;5.15;;;10.60;90.30;;;;;;5073131;28;20406;-71
2021/05/07 08:54:09;;;;;;;34.17;23.25;;;10.60;88.30;;;;;;5072724;28;20028;-71
2021/05/07 08:56:36;;;;;;;11.35;6.72;;;10.70;90.20;;;;;;5071453;28;20393;-72
2021/05/07 08:59:03;;;;;;;10.45;4.80;;;10.70;89.50;;;;;;5072513;28;20110;-71
2021/05/07 09:01:49;;;;;;;5.97;4.63;;;10.70;87.90;;;;;;5072703;28;20025;-71
2021/05/07 09:04:17;;;;;;;3.92;2.53;;;10.70;85.90;;;;;;5072781;28;20093;-71
2021/05/07 09:06:50;;;;;;;4.25;3.78;;;10.70;82.30;;;;;;5071455;28;20031;-71
2021/05/07 09:09:33;;;;;;;3.50;2.70;;;10.70;84.00;;;;;;5072642;28;20135;-71
2021/05/07 09:12:02;;;;;;;6.30;3.42;;;10.80;83.30;;;;;;5072644;28;20025;-71
2021/05/07 09:14:29;;;;;;;7.13;3.88;;;10.90;84.80;;;;;;5072672;28;20020;-71
2021/05/07 09:17:02;;;;;;;4.03;2.75;;;11.40;86.80;;;;;;5072621;28;20067;-71
2021/05/07 09:19:34;;;;;;;4.78;2.53;;;12.00;86.10;;;;;;5072653;28;20021;-71
2021/05/07 09:22:00;;;;;;;3.78;2.10;;;12.50;87.00;;;;;;5071250;28;20016;-71
2021/05/07 09:24:34;;;;;;;3.35;2.80;;;12.80;77.70;;;;;;5072509;28;20047;-73
2021/05/07 09:27:00;;;;;;;3.80;2.35;;;13.20;79.60;;;;;;5072391;28;20500;-73
2021/05/07 09:29:28;;;;;;;2.67;2.00;;;13.20;71.40;;;;;;5072489;28;20021;-73
2021/05/07 09:31:55;;;;;;;2.38;1.75;;;13.20;70.70;;;;;;5072424;28;20056;-72
2021/05/07 09:34:22;;;;;;;2.70;2.50;;;13.10;70.30;;;;;;5072185;28;20474;-73
2021/05/07 09:36:49;;;;;;;2.72;2.10;;;12.80;68.90;;;;;;5071059;28;20054;-72
2021/05/07 09:39:18;;;;;;;4.45;2.70;;;12.80;69.90;;;;;;5072368;28;20103;-72
2021/05/07 09:41:49;;;;;;;1.92;1.52;;;13.00;69.50;;;;;;5072381;28;20070;-72
2021/05/07 09:44:25;;;;;;;1.48;1.20;;;13.30;70.50;;;;;;5070946;28;20016;-72
2021/05/07 09:46:53;;;;;;;3.13;1.70;;;13.10;66.10;;;;;;5072314;28;20021;-73
2021/05/07 09:49:30;;;;;;;2.38;1.50;;;13.20;69.40;;;;;;5070818;28;20037;-72
2021/05/07 09:51:57;;;;;;;2.13;1.75;;;13.40;71.20;;;;;;5072240;28;20074;-72
2021/05/07 09:54:23;;;;;;;4.18;1.95;;;13.50;73.00;;;;;;5072168;28;20028;-72
2021/05/07 09:56:50;;;;;;;2.00;1.10;;;13.80;74.20;;;;;;5074873;28;20104;-72
2021/05/07 09:59:18;;;;;;;2.40;1.90;;;13.50;65.00;;;;;;5075755;28;20036;-71
2021/05/07 10:01:47;;;;;;;4.20;2.47;;;13.60;68.60;;;;;;5075763;28;20024;-73
2021/05/07 10:04:14;;;;;;;3.53;2.38;;;13.60;68.90;;;;;;5075744;28;20029;-72
2021/05/07 10:06:40;;;;;;;6.88;2.80;;;13.30;66.40;;;;;;5075644;28;20036;-72
2021/05/07 10:09:07;;;;;;;4.03;2.28;;;13.10;70.50;;;;;;5075420;28;20111;-73
2021/05/07 10:11:45;;;;;;;3.03;2.03;;;12.60;71.90;;;;;;5075615;28;20020;-72
2021/05/07 10:14:13;;;;;;;7.28;4.43;;;12.40;74.50;;;;;;5075626;28;20024;-72
2021/05/07 10:16:39;;;;;;;5.93;3.92;;;12.00;78.00;;;;;;5075523;28;20013;-73
2021/05/07 10:19:11;;;;;;;6.18;4.78;;;11.50;82.60;;;;;;5074092;28;20039;-72
2021/05/07 10:21:38;;;;;;;6.20;2.65;;;10.90;96.10;;;;;;5074244;28;20029;-72
2021/05/07 10:24:05;;;;;;;32.75;14.82;;;10.40;99.90;;;;;;5075347;28;20103;-72
2021/05/07 10:26:43;;;;;;;12.93;5.78;;;9.30;99.90;;;;;;5075363;28;20027;-72
2021/05/07 10:29:35;;;;;;;76.43;30.52;;;8.70;99.90;;;;;;5075091;28;20385;-72
2021/05/07 10:32:02;;;;;;;39.55;18.17;;;8.40;99.90;;;;;;5071300;28;20482;-72
2021/05/07 10:34:28;;;;;;;30.67;17.42;;;8.40;99.90;;;;;;5074714;28;20020;-72
2021/05/07 10:36:56;;;;;;;4.55;4.13;;;8.50;99.90;;;;;;5074940;28;20033;-72
2021/05/07 10:39:26;;;;;;;32.40;20.90;;;8.70;99.90;;;;;;5075112;28;20398;-73
2021/05/07 10:41:54;;;;;;;111.03;45.72;;;9.00;99.90;;;;;;5072994;28;20572;-72
2021/05/07 10:44:21;;;;;;;31.73;12.88;;;9.40;99.90;;;;;;5073721;28;20052;-73
2021/05/07 10:47:06;;;;;;;106.32;45.30;;;9.70;99.90;;;;;;5074988;28;20089;-72
2021/05/07 10:49:32;;;;;;;115.43;46.15;;;10.00;99.90;;;;;;5075010;28;20123;-72
2021/05/07 10:51:59;;;;;;;70.60;28.55;;;10.10;99.90;;;;;;5074829;28;20417;-72
2021/05/07 10:54:44;;;;;;;63.22;26.23;;;10.30;99.90;;;;;;5074858;28;20024;-73
2021/05/07 10:57:22;;;;;;;48.00;16.70;;;10.30;99.90;;;;;;5074765;28;20017;-72
2021/05/07 11:00:08;;;;;;;15.70;7.45;;;10.40;99.90;;;;;;5074726;28;20440;-72
2021/05/07 11:02:46;;;;;;;38.22;16.50;;;10.40;99.90;;;;;;5074285;28;20025;-72
2021/05/07 11:05:33;;;;;;;20.63;12.32;;;10.40;99.90;;;;;;5073339;28;20027;-72
2021/05/07 11:07:59;;;;;;;95.05;47.72;;;10.30;99.90;;;;;;5070662;28;20518;-72
2021/05/07 11:10:28;;;;;;;18.25;9.00;;;10.20;99.90;;;;;;5074678;28;20382;-72
2021/05/07 11:12:54;;;;;;;23.90;9.88;;;10.20;99.90;;;;;;5074473;28;20386;-72
2021/05/07 11:15:20;;;;;;;21.90;10.55;;;10.10;99.90;;;;;;5074432;28;20029;-72
2021/05/07 11:17:56;;;;;;;28.08;17.08;;;10.00;99.90;;;;;;5074405;28;20112;-72
2021/05/07 11:20:29;;;;;;;13.52;9.05;;;9.90;99.90;;;;;;5074394;28;20024;-72
2021/05/07 11:23:06;;;;;;;26.33;13.73;;;9.80;99.90;;;;;;5073153;28;20012;-72
2021/05/07 11:25:33;;;;;;;22.73;10.00;;;9.80;99.90;;;;;;5074281;28;20021;-72
2021/05/07 11:28:16;;;;;;;14.93;7.80;;;9.80;99.90;;;;;;5074135;28;20059;-72
2021/05/07 11:31:00;;;;;;;19.60;12.07;;;9.80;99.90;;;;;;5074262;28;20028;-72
2021/05/07 11:33:31;;;;;;;23.35;12.95;;;9.80;99.90;;;;;;5072729;28;20394;-72
2021/05/07 11:36:22;;;;;;;31.25;15.18;;;9.80;99.90;;;;;;5074099;28;20024;-72
2021/05/07 11:38:48;;;;;;;14.52;7.03;;;9.90;99.90;;;;;;5070147;28;20041;-72
2021/05/07 11:41:25;;;;;;;14.05;8.55;;;9.80;99.90;;;;;;5073909;28;20017;-72
2021/05/07 11:43:52;;;;;;;11.88;7.20;;;9.80;99.90;;;;;;5073417;28;20423;-72
2021/05/07 11:46:18;;;;;;;17.08;14.05;;;9.90;99.90;;;;;;5073785;28;20016;-72
2021/05/07 11:48:49;;;;;;;27.10;17.60;;;10.00;99.90;;;;;;5072420;28;20037;-72
2021/05/07 11:51:16;;;;;;;17.67;9.35;;;10.20;99.90;;;;;;5072435;28;20375;-72
2021/05/07 11:53:42;;;;;;;13.02;7.93;;;10.40;99.90;;;;;;5073661;28;20077;-72
2021/05/07 11:56:23;;;;;;;16.58;9.02;;;10.60;99.90;;;;;;5073655;28;20062;-73
2021/05/07 11:58:51;;;;;;;14.48;9.35;;;10.60;99.90;;;;;;5073469;28;20077;-72
2021/05/07 12:01:19;;;;;;;20.27;12.45;;;10.80;99.90;;;;;;5072301;28;20028;-72
2021/05/07 12:03:45;;;;;;;19.42;11.48;;;10.80;99.90;;;;;;5073507;28;20025;-72
2021/05/07 12:06:26;;;;;;;17.38;10.32;;;10.90;99.90;;;;;;5073447;28;20059;-72
2021/05/07 12:08:52;;;;;;;20.00;10.88;;;11.00;99.90;;;;;;5072094;28;20036;-72
2021/05/07 12:11:18;;;;;;;22.33;15.15;;;11.10;99.90;;;;;;5072980;28;20016;-72
2021/05/07 12:13:46;;;;;;;24.35;12.82;;;11.20;99.90;;;;;;5072784;28;20036;-72
2021/05/07 12:16:13;;;;;;;16.08;9.88;;;11.20;99.90;;;;;;5073336;28;20024;-72
2021/05/07 12:18:50;;;;;;;15.60;10.15;;;11.40;99.90;;;;;;5071302;28;20020;-72
2021/05/07 12:21:16;;;;;;;14.52;9.75;;;11.40;99.90;;;;;;5073175;28;20017;-72
2021/05/07 12:23:49;;;;;;;17.30;11.10;;;11.60;99.90;;;;;;5073141;28;20030;-72
2021/05/07 12:26:15;;;;;;;;;;;11.70;99.90;;;;;;5073647;28;20069;-73
2021/05/07 12:28:55;;;;;;;15.00;8.73;;;12.00;99.90;;;;;;5073044;28;20297;-73
2021/05/07 12:31:31;;;;;;;14.80;9.30;;;12.20;99.90;;;;;;5073131;28;20588;-72
2021/05/07 12:33:57;;;;;;;9.82;6.80;;;12.40;99.90;;;;;;5072725;28;20073;-73
2021/05/07 12:36:26;;;;;;;9.65;5.78;;;12.70;95.60;;;;;;5071653;28;20027;-73
2021/05/07 12:39:06;;;;;;;4.40;4.00;;;12.70;91.20;;;;;;5070963;28;20025;-73
2021/05/07 12:41:32;;;;;;;6.43;4.40;;;12.40;80.10;;;;;;5060012;28;20573;-72
2021/05/07 12:43:58;;;;;;;4.07;3.10;;;12.30;80.60;;;;;;5058409;28;20028;-72
2021/05/07 12:46:24;;;;;;;4.18;2.88;;;12.40;73.40;;;;;;5058946;28;20021;-73
2021/05/07 12:48:52;;;;;;;3.65;3.25;;;12.60;72.50;;;;;;5057149;28;20036;-72
2021/05/07 12:51:19;;;;;;;4.05;2.60;;;12.60;71.00;;;;;;5055535;28;20027;-72
2021/05/07 12:53:44;;;;;;;2.83;2.20;;;12.70;66.00;;;;;;5057900;28;20029;-72